createdAt,value
2023-04-15T00:00:02.924Z,3.30
2023-04-15T00:01:02.910Z,3.40
2023-04-15T00:02:03.034Z,3.90
2023-04-15T00:03:03.055Z,3.20
2023-04-15T00:04:02.995Z,3.60
2023-04-15T00:05:02.871Z,3.90
2023-04-15T00:06:02.849Z,3.80
2023-04-15T00:07:02.840Z,3.90
2023-04-15T00:08:03.604Z,3.80
2023-04-15T00:09:03.022Z,4.20
2023-04-15T00:10:02.813Z,5.60
2023-04-15T00:11:03.060Z,5.50
2023-04-15T00:12:02.786Z,5.30
2023-04-15T00:13:02.806Z,5.50
2023-04-15T00:14:02.796Z,5.90
2023-04-15T00:15:02.749Z,6.70
2023-04-15T00:16:02.765Z,7.60
2023-04-15T00:17:02.794Z,8.90
2023-04-15T00:18:02.710Z,10.70
2023-04-15T00:19:02.889Z,11.60
2023-04-15T00:20:02.722Z,10.40
2023-04-15T00:21:02.662Z,8.10
2023-04-15T00:22:02.677Z,6.60
2023-04-15T00:23:02.673Z,4.70
2023-04-15T00:24:02.638Z,4.50
2023-04-15T00:25:02.612Z,3.90
2023-04-15T00:26:02.643Z,3.90
2023-04-15T00:27:02.580Z,3.80
2023-04-15T00:28:02.596Z,3.90
2023-04-15T00:29:02.604Z,3.90
2023-04-15T00:30:02.571Z,4.30
2023-04-15T00:31:02.619Z,7.00
2023-04-15T00:32:02.534Z,7.40
2023-04-15T00:33:02.577Z,7.90
2023-04-15T00:34:02.526Z,8.90
2023-04-15T00:35:02.483Z,8.90
2023-04-15T00:36:02.520Z,8.70
2023-04-15T00:37:02.474Z,7.00
2023-04-15T00:38:02.460Z,7.40
2023-04-15T00:39:02.586Z,7.20
2023-04-15T00:40:02.434Z,6.70
2023-04-15T00:41:02.412Z,4.30
2023-04-15T00:42:02.419Z,4.80
2023-04-15T00:43:02.406Z,4.90
2023-04-15T00:44:02.384Z,4.80
2023-04-15T00:45:02.382Z,4.50
2023-04-15T00:46:02.419Z,4.20
2023-04-15T00:47:02.355Z,4.10
2023-04-15T00:48:02.388Z,4.40
2023-04-15T00:49:02.513Z,4.20
2023-04-15T00:50:02.314Z,4.90
2023-04-15T00:51:02.324Z,5.10
2023-04-15T00:52:02.339Z,4.80
2023-04-15T00:53:02.309Z,5.00
2023-04-15T00:54:02.303Z,5.40
2023-04-15T00:55:02.251Z,5.70
2023-04-15T00:56:02.262Z,5.50
2023-04-15T00:57:02.240Z,6.10
2023-04-15T00:58:02.210Z,6.10
2023-04-15T00:59:02.462Z,7.10
2023-04-15T01:00:02.189Z,6.10
2023-04-15T01:01:02.170Z,5.50
2023-04-15T01:02:02.207Z,4.70
2023-04-15T01:03:56.522Z,4.80
2023-04-15T01:04:57.426Z,4.60
2023-04-15T01:05:57.407Z,4.70
2023-04-15T01:06:57.377Z,4.90
2023-04-15T01:07:57.407Z,5.00
2023-04-15T01:08:57.344Z,5.30
2023-04-15T01:09:57.355Z,4.40
2023-04-15T01:10:57.326Z,4.50
2023-04-15T01:11:57.325Z,4.00
2023-04-15T01:12:57.313Z,4.00
2023-04-15T01:13:57.319Z,4.40
2023-04-15T01:14:57.304Z,3.80
2023-04-15T01:15:57.345Z,4.10
2023-04-15T01:16:57.246Z,4.50
2023-04-15T01:17:57.273Z,3.40
2023-04-15T01:18:57.224Z,4.10
2023-04-15T01:19:57.222Z,4.10
2023-04-15T01:20:57.208Z,4.10
2023-04-15T01:21:57.261Z,3.90
2023-04-15T01:22:57.237Z,4.80
2023-04-15T01:23:57.163Z,5.30
2023-04-15T01:24:57.160Z,3.80
2023-04-15T01:25:57.146Z,4.50
2023-04-15T01:26:57.134Z,4.20
2023-04-15T01:27:57.162Z,3.90
2023-04-15T01:28:57.113Z,4.20
2023-04-15T01:29:57.091Z,3.90
2023-04-15T01:30:57.081Z,3.50
2023-04-15T01:31:57.114Z,3.40
2023-04-15T01:32:57.193Z,3.60
2023-04-15T01:33:57.066Z,3.70
2023-04-15T01:34:57.030Z,3.30
2023-04-15T01:35:57.021Z,3.30
2023-04-15T01:36:57.015Z,3.30
2023-04-15T01:37:57.011Z,3.60
2023-04-15T01:38:57.002Z,3.80
2023-04-15T01:39:56.953Z,3.60
2023-04-15T01:40:56.960Z,3.60
2023-04-15T01:41:56.949Z,3.90
2023-04-15T01:42:56.923Z,3.40
2023-04-15T01:43:56.922Z,3.80
2023-04-15T01:44:56.937Z,3.30
2023-04-15T01:45:56.909Z,3.50
2023-04-15T01:46:57.028Z,3.30
2023-04-15T01:47:56.907Z,3.40
2023-04-15T01:48:56.868Z,3.30
2023-04-15T01:49:56.880Z,3.20
2023-04-15T01:50:56.948Z,3.30
2023-04-15T01:51:56.898Z,3.50
2023-04-15T01:52:56.833Z,2.80
2023-04-15T01:53:56.804Z,2.60
2023-04-15T01:54:56.788Z,2.60
2023-04-15T01:55:56.788Z,2.50
2023-04-15T01:56:56.794Z,2.80
2023-04-15T01:57:56.754Z,2.80
2023-04-15T01:58:56.744Z,2.60
2023-04-15T01:59:56.712Z,2.80
2023-04-15T02:00:56.750Z,2.50
2023-04-15T02:01:56.764Z,2.90
2023-04-15T02:02:56.739Z,2.60
2023-04-15T02:03:56.691Z,2.80
2023-04-15T02:04:56.648Z,3.20
2023-04-15T02:05:56.648Z,2.90
2023-04-15T02:06:56.662Z,2.90
2023-04-15T02:07:56.658Z,2.80
2023-04-15T02:08:56.639Z,3.10
2023-04-15T02:09:56.588Z,3.30
2023-04-15T02:10:56.577Z,3.20
2023-04-15T02:11:56.572Z,2.80
2023-04-15T02:12:56.591Z,3.20
2023-04-15T02:13:56.567Z,3.00
2023-04-15T02:14:56.523Z,3.10
2023-04-15T02:15:56.519Z,3.20
2023-04-15T02:16:56.641Z,2.80
2023-04-15T02:17:56.607Z,3.40
2023-04-15T02:18:56.546Z,3.30
2023-04-15T02:19:56.494Z,3.40
2023-04-15T02:20:56.478Z,3.20
2023-04-15T02:21:56.494Z,3.50
2023-04-15T02:22:56.435Z,3.40
2023-04-15T02:23:56.422Z,3.50
2023-04-15T02:24:56.453Z,3.40
2023-04-15T02:25:56.411Z,3.40
2023-04-15T02:26:56.386Z,3.80
2023-04-15T02:27:56.378Z,3.90
2023-04-15T02:28:56.349Z,3.90
2023-04-15T02:29:56.346Z,3.60
2023-04-15T02:30:56.372Z,4.40
2023-04-15T02:31:56.365Z,3.80
2023-04-15T02:32:56.363Z,4.30
2023-04-15T02:33:56.323Z,4.40
2023-04-15T02:34:56.287Z,4.10
2023-04-15T02:35:56.283Z,4.50
2023-04-15T02:36:56.286Z,4.40
2023-04-15T02:37:56.264Z,3.80
2023-04-15T02:38:56.246Z,4.30
2023-04-15T02:39:56.214Z,4.30
2023-04-15T02:40:56.201Z,4.20
2023-04-15T02:41:56.205Z,4.00
2023-04-15T02:42:56.196Z,4.40
2023-04-15T02:43:56.172Z,5.10
2023-04-15T02:44:56.193Z,5.00
2023-04-15T02:45:56.167Z,4.20
2023-04-15T02:46:56.141Z,4.50
2023-04-15T02:47:56.260Z,4.40
2023-04-15T02:48:56.125Z,4.50
2023-04-15T02:49:56.123Z,4.60
2023-04-15T02:50:56.108Z,4.30
2023-04-15T02:51:56.089Z,4.30
2023-04-15T02:52:56.087Z,4.40
2023-04-15T02:53:56.052Z,4.70
2023-04-15T02:54:56.117Z,4.50
2023-04-15T02:55:56.009Z,4.50
2023-04-15T02:56:56.006Z,4.50
2023-04-15T02:57:56.210Z,4.60
2023-04-15T02:58:55.976Z,4.80
2023-04-15T02:59:55.955Z,4.80
2023-04-15T03:00:56.002Z,4.50
2023-04-15T03:01:56.029Z,4.50
2023-04-15T03:02:55.993Z,5.00
2023-04-15T03:03:56.060Z,5.20
2023-04-15T03:04:55.921Z,5.20
2023-04-15T03:05:55.906Z,4.90
2023-04-15T03:06:55.912Z,4.80
2023-04-15T03:07:55.861Z,4.70
2023-04-15T03:08:55.864Z,4.90
2023-04-15T03:09:55.839Z,5.20
2023-04-15T03:10:55.821Z,4.50
2023-04-15T03:11:55.863Z,4.60
2023-04-15T03:12:55.845Z,4.60
2023-04-15T03:13:55.806Z,4.80
2023-04-15T03:14:55.778Z,4.50
2023-04-15T03:15:55.825Z,5.00
2023-04-15T03:16:55.751Z,4.70
2023-04-15T03:17:55.818Z,4.20
2023-04-15T03:18:55.792Z,4.80
2023-04-15T03:19:55.783Z,4.40
2023-04-15T03:20:55.691Z,4.30
2023-04-15T03:21:55.719Z,4.20
2023-04-15T03:22:55.765Z,4.00
2023-04-15T03:23:55.683Z,3.90
2023-04-15T03:24:55.689Z,3.70
2023-04-15T03:25:55.643Z,3.80
2023-04-15T03:26:55.648Z,3.40
2023-04-15T03:27:55.622Z,3.30
2023-04-15T03:28:55.679Z,3.40
2023-04-15T03:29:55.600Z,3.30
2023-04-15T03:30:55.693Z,3.40
2023-04-15T03:31:55.587Z,3.50
2023-04-15T03:32:55.648Z,4.00
2023-04-15T03:33:55.554Z,3.80
2023-04-15T03:34:55.577Z,3.60
2023-04-15T03:35:55.556Z,4.00
2023-04-15T03:36:55.544Z,4.30
2023-04-15T03:37:55.518Z,3.80
2023-04-15T03:38:55.486Z,3.70
2023-04-15T03:39:55.480Z,3.80
2023-04-15T03:40:55.445Z,3.70
2023-04-15T03:41:55.455Z,3.80
2023-04-15T03:42:55.440Z,3.40
2023-04-15T03:43:56.145Z,3.60
2023-04-15T03:44:55.412Z,3.60
2023-04-15T03:45:55.381Z,3.40
2023-04-15T03:46:55.459Z,3.50
2023-04-15T03:47:55.485Z,3.50
2023-04-15T03:48:55.368Z,3.60
2023-04-15T03:49:55.412Z,3.80
2023-04-15T03:50:55.367Z,3.50
2023-04-15T03:51:55.343Z,3.70
2023-04-15T03:52:55.352Z,3.40
2023-04-15T03:53:55.285Z,4.30
2023-04-15T03:54:55.290Z,3.90
2023-04-15T03:55:55.257Z,3.70
2023-04-15T03:56:55.250Z,3.80
2023-04-15T03:57:55.279Z,3.90
2023-04-15T03:58:55.259Z,3.70
2023-04-15T03:59:55.302Z,4.00
2023-04-15T04:00:55.210Z,3.80
2023-04-15T04:01:55.290Z,3.60
2023-04-15T04:02:55.333Z,3.80
2023-04-15T04:03:55.379Z,4.00
2023-04-15T04:04:55.172Z,4.10
2023-04-15T04:05:55.140Z,3.80
2023-04-15T04:06:55.142Z,3.20
2023-04-15T04:07:55.131Z,3.10
2023-04-15T04:08:55.133Z,2.80
2023-04-15T04:09:55.101Z,3.10
2023-04-15T04:10:55.094Z,3.20
2023-04-15T04:11:55.085Z,3.50
2023-04-15T04:12:55.051Z,3.60
2023-04-15T04:13:55.039Z,3.10
2023-04-15T04:14:55.068Z,3.10
2023-04-15T04:15:55.015Z,2.80
2023-04-15T04:16:55.074Z,2.60
2023-04-15T04:17:55.041Z,2.50
2023-04-15T04:18:55.029Z,2.30
2023-04-15T04:19:55.032Z,2.20
2023-04-15T04:20:54.970Z,2.30
2023-04-15T04:21:54.959Z,2.50
2023-04-15T04:22:54.924Z,3.10
2023-04-15T04:23:54.942Z,3.10
2023-04-15T04:24:54.915Z,2.90
2023-04-15T04:25:54.906Z,3.10
2023-04-15T04:26:54.901Z,3.70
2023-04-15T04:27:54.882Z,3.70
2023-04-15T04:28:54.884Z,3.80
2023-04-15T04:29:54.872Z,3.80
2023-04-15T04:30:54.848Z,4.00
2023-04-15T04:31:54.812Z,3.80
2023-04-15T04:32:54.844Z,4.20
2023-04-15T04:33:54.807Z,4.50
2023-04-15T04:34:54.807Z,4.90
2023-04-15T04:35:54.769Z,5.30
2023-04-15T04:36:54.748Z,6.10
2023-04-15T04:37:54.774Z,6.10
2023-04-15T04:38:54.771Z,6.20
2023-04-15T04:39:54.763Z,6.70
2023-04-15T04:40:54.766Z,6.30
2023-04-15T04:41:54.687Z,5.90
2023-04-15T04:42:54.678Z,6.10
2023-04-15T04:43:54.682Z,5.50
2023-04-15T04:44:54.671Z,5.40
2023-04-15T04:45:54.702Z,4.80
2023-04-15T04:46:54.617Z,4.70
2023-04-15T04:47:54.639Z,4.80
2023-04-15T04:48:54.632Z,4.50
2023-04-15T04:49:54.603Z,4.30
2023-04-15T04:50:54.599Z,4.70
2023-04-15T04:51:54.554Z,5.20
2023-04-15T04:52:54.561Z,5.00
2023-04-15T04:53:54.560Z,4.70
2023-04-15T04:54:54.562Z,4.50
2023-04-15T04:55:54.543Z,4.90
2023-04-15T04:56:54.508Z,4.40
2023-04-15T04:57:54.479Z,4.00
2023-04-15T04:58:54.494Z,3.80
2023-04-15T04:59:54.481Z,3.60
2023-04-15T05:00:54.472Z,3.50
2023-04-15T05:01:54.549Z,3.20
2023-04-15T05:02:54.509Z,3.40
2023-04-15T05:03:54.487Z,3.10
2023-04-15T05:04:54.412Z,3.10
2023-04-15T05:05:54.403Z,2.90
2023-04-15T05:06:54.407Z,2.90
2023-04-15T05:07:54.400Z,2.70
2023-04-15T05:08:54.356Z,3.00
2023-04-15T05:09:54.375Z,2.50
2023-04-15T05:10:54.344Z,2.90
2023-04-15T05:11:54.355Z,2.50
2023-04-15T05:12:54.331Z,2.40
2023-04-15T05:13:54.332Z,2.50
2023-04-15T05:14:54.312Z,2.50
2023-04-15T05:15:54.334Z,2.20
2023-04-15T05:16:54.286Z,2.00
2023-04-15T05:17:54.272Z,2.30
2023-04-15T05:18:54.281Z,2.30
2023-04-15T05:19:54.261Z,1.90
2023-04-15T05:20:54.247Z,1.90
2023-04-15T05:21:54.246Z,1.90
2023-04-15T05:22:54.215Z,2.10
2023-04-15T05:23:54.207Z,1.90
2023-04-15T05:24:54.196Z,1.60
2023-04-15T05:25:54.185Z,1.90
2023-04-15T05:26:54.196Z,1.60
2023-04-15T05:27:54.134Z,1.70
2023-04-15T05:28:54.107Z,1.70
2023-04-15T05:29:54.234Z,1.70
2023-04-15T05:30:54.172Z,1.70
2023-04-15T05:31:54.097Z,1.70
2023-04-15T05:32:54.099Z,1.70
2023-04-15T05:33:54.126Z,1.60
2023-04-15T05:34:54.148Z,2.00
2023-04-15T05:35:54.014Z,1.70
2023-04-15T05:36:53.995Z,1.70
2023-04-15T05:37:54.024Z,1.70
2023-04-15T05:38:54.022Z,1.70
2023-04-15T05:39:54.001Z,1.60
2023-04-15T05:40:53.981Z,1.60
2023-04-15T05:41:53.951Z,1.70
2023-04-15T05:42:53.916Z,1.70
2023-04-15T05:43:53.944Z,1.70
2023-04-15T05:44:53.896Z,1.60
2023-04-15T05:45:54.023Z,1.80
2023-04-15T05:46:53.896Z,1.80
2023-04-15T05:47:53.926Z,1.60
2023-04-15T05:48:56.033Z,1.60
2023-04-15T05:49:53.837Z,1.70
2023-04-15T05:50:53.828Z,1.70
2023-04-15T05:51:53.833Z,1.70
2023-04-15T05:52:53.837Z,1.80
2023-04-15T05:53:53.809Z,1.90
2023-04-15T05:54:53.789Z,1.70
2023-04-15T05:55:53.835Z,1.70
2023-04-15T05:56:53.818Z,1.70
2023-04-15T05:57:53.807Z,1.60
2023-04-15T05:58:53.985Z,1.90
2023-04-15T05:59:53.751Z,1.90
2023-04-15T06:00:53.699Z,2.10
2023-04-15T06:01:53.762Z,2.00
2023-04-15T06:02:53.724Z,2.10
2023-04-15T06:03:53.800Z,1.90
2023-04-15T06:04:53.690Z,2.20
2023-04-15T06:05:53.635Z,2.20
2023-04-15T06:06:53.640Z,2.20
2023-04-15T06:07:53.629Z,2.10
2023-04-15T06:08:53.596Z,2.00
2023-04-15T06:09:53.610Z,2.00
2023-04-15T06:10:53.556Z,2.00
2023-04-15T06:11:53.605Z,2.10
2023-04-15T06:12:53.553Z,2.20
2023-04-15T06:13:53.559Z,2.50
2023-04-15T06:14:53.538Z,2.60
2023-04-15T06:15:53.545Z,2.20
2023-04-15T06:16:53.517Z,2.20
2023-04-15T06:17:53.542Z,2.40
2023-04-15T06:18:53.480Z,1.90
2023-04-15T06:19:53.470Z,1.90
2023-04-15T06:20:53.456Z,2.00
2023-04-15T06:21:53.451Z,1.90
2023-04-15T06:22:53.429Z,1.80
2023-04-15T06:23:53.401Z,1.70
2023-04-15T06:24:53.422Z,1.50
2023-04-15T06:25:53.392Z,1.70
2023-04-15T06:26:53.372Z,1.90
2023-04-15T06:27:53.387Z,1.90
2023-04-15T06:28:53.338Z,1.80
2023-04-15T06:29:53.341Z,1.90
2023-04-15T06:30:53.336Z,1.90
2023-04-15T06:31:53.433Z,1.90
2023-04-15T06:32:53.351Z,1.80
2023-04-15T06:33:53.307Z,1.70
2023-04-15T06:34:53.281Z,1.80
2023-04-15T06:35:53.271Z,2.10
2023-04-15T06:36:53.237Z,1.90
2023-04-15T06:37:53.257Z,1.80
2023-04-15T06:38:53.230Z,1.80
2023-04-15T06:39:53.186Z,1.90
2023-04-15T06:40:53.203Z,2.00
2023-04-15T06:41:53.162Z,1.80
2023-04-15T06:42:53.183Z,1.90
2023-04-15T06:43:53.155Z,1.90
2023-04-15T06:44:53.225Z,1.70
2023-04-15T06:45:53.228Z,1.90
2023-04-15T06:46:53.155Z,1.70
2023-04-15T06:51:38.554Z,1.70
2023-04-15T06:51:44.435Z,1.80
2023-04-15T06:52:44.429Z,2.00
2023-04-15T06:53:44.434Z,1.90
2023-04-15T06:54:44.402Z,1.90
2023-04-15T06:55:44.360Z,1.90
2023-04-15T06:56:44.389Z,2.00
2023-04-15T06:57:44.377Z,2.20
2023-04-15T06:58:44.380Z,1.80
2023-04-15T06:59:44.360Z,1.80
2023-04-15T07:00:44.319Z,2.00
2023-04-15T07:01:44.316Z,2.10
2023-04-15T07:02:44.421Z,1.80
2023-04-15T07:03:44.369Z,1.90
2023-04-15T07:04:44.259Z,2.00
2023-04-15T07:05:44.260Z,2.00
2023-04-15T07:07:05.249Z,1.90
2023-04-15T07:07:44.219Z,1.80
2023-04-15T07:08:44.239Z,1.90
2023-04-15T07:09:44.208Z,1.90
2023-04-15T07:10:44.204Z,2.10
2023-04-15T07:11:44.188Z,1.90
2023-04-15T07:12:44.160Z,1.90
2023-04-15T07:13:44.151Z,2.20
2023-04-15T07:14:44.159Z,2.00
2023-04-15T07:15:45.107Z,1.90
2023-04-15T07:16:44.145Z,1.90
2023-04-15T07:17:44.147Z,2.00
2023-04-15T07:18:44.101Z,2.00
2023-04-15T07:19:44.092Z,1.90
2023-04-15T07:20:44.078Z,2.30
2023-04-15T07:21:44.040Z,2.00
2023-04-15T07:22:44.019Z,2.10
2023-04-15T07:23:44.008Z,2.00
2023-04-15T07:24:44.026Z,2.10
2023-04-15T07:25:43.993Z,2.00
2023-04-15T07:26:43.971Z,2.00
2023-04-15T07:27:43.958Z,2.00
2023-04-15T07:28:43.944Z,2.10
2023-04-15T07:29:43.959Z,2.40
2023-04-15T07:30:44.022Z,2.30
2023-04-15T07:31:43.909Z,2.40
2023-04-15T07:32:43.941Z,2.30
2023-04-15T07:33:43.913Z,2.40
2023-04-15T07:34:43.893Z,2.40
2023-04-15T07:35:43.894Z,2.10
2023-04-15T07:36:43.841Z,2.10
2023-04-15T07:37:43.824Z,2.30
2023-04-15T07:38:43.847Z,2.20
2023-04-15T07:39:43.828Z,2.20
2023-04-15T07:40:43.820Z,2.10
2023-04-15T07:41:43.792Z,2.10
2023-04-15T07:42:43.779Z,2.10
2023-04-15T07:43:43.762Z,2.10
2023-04-15T07:44:43.778Z,2.10
2023-04-15T07:45:43.850Z,2.20
2023-04-15T07:46:43.808Z,2.20
2023-04-15T07:47:43.747Z,2.20
2023-04-15T07:48:43.689Z,2.30
2023-04-15T07:49:43.702Z,2.10
2023-04-15T07:50:43.706Z,2.30
2023-04-15T07:51:43.657Z,2.30
2023-04-15T07:52:43.631Z,2.20
2023-04-15T07:53:43.644Z,2.00
2023-04-15T07:54:43.611Z,2.20
2023-04-15T07:55:43.629Z,2.30
2023-04-15T07:56:43.643Z,2.30
2023-04-15T07:57:43.605Z,2.30
2023-04-15T07:58:43.559Z,2.60
2023-04-15T07:59:43.557Z,2.40
2023-04-15T08:00:43.546Z,2.70
2023-04-15T08:01:43.556Z,2.90
2023-04-15T08:02:43.751Z,2.50
2023-04-15T08:03:43.765Z,2.60
2023-04-15T08:04:43.697Z,2.50
2023-04-15T08:05:43.514Z,2.10
2023-04-15T08:06:43.534Z,2.30
2023-04-15T08:07:43.462Z,2.20
2023-04-15T08:08:43.444Z,2.00
2023-04-15T08:09:43.426Z,2.20
2023-04-15T08:10:43.417Z,1.90
2023-04-15T08:11:43.405Z,2.20
2023-04-15T08:12:43.410Z,2.50
2023-04-15T08:13:43.380Z,2.40
2023-04-15T08:14:43.373Z,2.50
2023-04-15T08:15:43.402Z,2.50
2023-04-15T08:16:43.376Z,2.50
2023-04-15T08:17:43.325Z,2.30
2023-04-15T08:18:43.340Z,2.60
2023-04-15T08:19:43.290Z,2.30
2023-04-15T08:20:43.279Z,2.50
2023-04-15T08:21:43.270Z,2.50
2023-04-15T08:22:43.253Z,2.60
2023-04-15T08:23:43.280Z,2.60
2023-04-15T08:24:43.223Z,2.50
2023-04-15T08:25:43.221Z,2.40
2023-04-15T08:26:43.234Z,2.60
2023-04-15T08:27:43.199Z,2.80
2023-04-15T08:28:43.177Z,2.30
2023-04-15T08:29:43.208Z,2.50
2023-04-15T08:30:43.175Z,2.50
2023-04-15T08:31:43.191Z,2.30
2023-04-15T08:32:43.202Z,2.50
2023-04-15T08:33:43.154Z,2.60
2023-04-15T08:34:43.123Z,2.50
2023-04-15T08:35:43.109Z,2.70
2023-04-15T08:36:43.105Z,2.20
2023-04-15T08:37:43.090Z,2.20
2023-04-15T08:38:43.050Z,2.10
2023-04-15T08:39:43.033Z,2.50
2023-04-15T08:40:43.045Z,2.10
2023-04-15T08:41:43.056Z,2.20
2023-04-15T08:42:43.725Z,2.10
2023-04-15T08:43:42.998Z,2.10
2023-04-15T08:44:43.020Z,2.30
2023-04-15T08:45:43.000Z,2.00
2023-04-15T08:46:42.990Z,2.10
2023-04-15T08:47:43.057Z,2.00
2023-04-15T08:48:42.974Z,2.00
2023-04-15T08:49:42.908Z,2.00
2023-04-15T08:50:42.905Z,2.20
2023-04-15T08:51:42.899Z,2.00
2023-04-15T08:52:42.878Z,2.20
2023-04-15T08:53:42.888Z,2.10
2023-04-15T08:54:42.866Z,2.20
2023-04-15T08:55:42.846Z,1.90
2023-04-15T08:56:42.872Z,2.00
2023-04-15T08:57:42.838Z,1.80
2023-04-15T08:58:42.802Z,1.80
2023-04-15T08:59:42.818Z,2.20
2023-04-15T09:00:42.765Z,2.40
2023-04-15T09:01:42.949Z,2.20
2023-04-15T09:02:43.054Z,2.00
2023-04-15T09:03:42.941Z,2.10
2023-04-15T09:04:42.755Z,2.20
2023-04-15T09:05:42.726Z,2.10
2023-04-15T09:06:42.709Z,2.00
2023-04-15T09:07:42.756Z,2.00
2023-04-15T09:08:42.739Z,2.10
2023-04-15T09:09:42.708Z,2.00
2023-04-15T09:10:42.650Z,2.00
2023-04-15T09:11:42.709Z,2.10
2023-04-15T09:12:42.657Z,1.90
2023-04-15T09:13:42.625Z,1.90
2023-04-15T09:14:42.605Z,1.80
2023-04-15T09:15:42.604Z,1.80
2023-04-15T09:16:42.640Z,2.00
2023-04-15T09:17:42.621Z,2.10
2023-04-15T09:18:42.554Z,2.10
2023-04-15T09:19:42.540Z,2.10
2023-04-15T09:20:42.547Z,2.10
2023-04-15T09:21:42.531Z,2.40
2023-04-15T09:22:42.504Z,2.20
2023-04-15T09:23:42.493Z,2.40
2023-04-15T09:24:42.512Z,2.40
2023-04-15T09:25:42.479Z,2.20
2023-04-15T09:26:42.482Z,2.20
2023-04-15T09:27:42.467Z,2.20
2023-04-15T09:28:42.437Z,2.10
2023-04-15T09:29:42.406Z,2.00
2023-04-15T09:30:42.439Z,2.10
2023-04-15T09:31:42.386Z,2.10
2023-04-15T09:32:42.484Z,2.20
2023-04-15T09:33:42.369Z,2.00
2023-04-15T09:34:42.406Z,2.10
2023-04-15T09:35:42.347Z,2.00
2023-04-15T09:36:42.324Z,1.90
2023-04-15T09:37:42.318Z,2.10
2023-04-15T09:38:42.321Z,2.00
2023-04-15T09:39:42.273Z,2.10
2023-04-15T09:40:42.271Z,1.90
2023-04-15T09:41:42.239Z,1.80
2023-04-15T09:42:42.255Z,2.00
2023-04-15T09:43:42.249Z,1.80
2023-04-15T09:44:42.227Z,2.20
2023-04-15T09:45:42.247Z,2.10
2023-04-15T09:46:42.232Z,2.10
2023-04-15T09:47:42.220Z,2.00
2023-04-15T09:48:42.160Z,2.00
2023-04-15T09:49:42.216Z,2.10
2023-04-15T09:50:42.149Z,2.40
2023-04-15T09:51:44.851Z,1.90
2023-04-15T09:52:42.133Z,2.10
2023-04-15T09:53:42.102Z,2.20
2023-04-15T09:54:42.087Z,2.20
2023-04-15T09:55:42.090Z,2.40
2023-04-15T09:56:42.065Z,2.40
2023-04-15T09:57:42.079Z,2.50
2023-04-15T09:58:42.062Z,2.20
2023-04-15T09:59:42.036Z,2.20
2023-04-15T10:00:42.017Z,2.40
2023-04-15T10:01:42.128Z,2.20
2023-04-15T10:02:42.064Z,2.30
2023-04-15T10:03:42.100Z,2.20
2023-04-15T10:04:41.956Z,2.50
2023-04-15T10:05:41.956Z,2.40
2023-04-15T10:06:41.929Z,2.30
2023-04-15T10:07:41.938Z,2.30
2023-04-15T10:08:41.932Z,2.50
2023-04-15T10:09:41.967Z,2.70
2023-04-15T10:10:41.898Z,2.50
2023-04-15T10:11:41.871Z,2.50
2023-04-15T10:12:41.898Z,2.60
2023-04-15T10:13:41.837Z,2.40
2023-04-15T10:14:41.860Z,2.40
2023-04-15T10:15:41.860Z,2.60
2023-04-15T10:16:41.812Z,3.00
2023-04-15T10:17:41.872Z,2.80
2023-04-15T10:18:41.816Z,2.60
2023-04-15T10:19:41.841Z,2.70
2023-04-15T10:20:41.783Z,3.10
2023-04-15T10:21:41.773Z,2.70
2023-04-15T10:22:41.745Z,2.60
2023-04-15T10:23:41.747Z,2.40
2023-04-15T10:24:41.736Z,2.60
2023-04-15T10:25:41.737Z,2.50
2023-04-15T10:26:41.690Z,2.50
2023-04-15T10:27:41.711Z,2.30
2023-04-15T10:28:41.683Z,2.00
2023-04-15T10:29:41.695Z,2.10
2023-04-15T10:30:41.651Z,2.00
2023-04-15T10:31:41.708Z,2.00
2023-04-15T10:32:41.681Z,2.00
2023-04-15T10:33:41.648Z,2.00
2023-04-15T10:34:41.608Z,1.90
2023-04-15T10:35:41.608Z,2.10
2023-04-15T10:36:41.581Z,2.00
2023-04-15T10:37:41.606Z,2.10
2023-04-15T10:38:41.583Z,2.20
2023-04-15T10:39:41.584Z,1.90
2023-04-15T10:40:41.595Z,1.90
2023-04-15T10:41:41.550Z,2.10
2023-04-15T10:42:41.504Z,2.20
2023-04-15T10:43:41.505Z,1.80
2023-04-15T10:44:41.509Z,2.10
2023-04-15T10:45:41.484Z,2.10
2023-04-15T10:46:41.597Z,2.20
2023-04-15T10:47:41.549Z,1.90
2023-04-15T10:48:41.458Z,1.90
2023-04-15T10:49:41.437Z,1.80
2023-04-15T10:50:41.406Z,2.00
2023-04-15T10:51:41.392Z,1.70
2023-04-15T10:52:41.402Z,1.90
2023-04-15T10:53:41.369Z,1.90
2023-04-15T10:54:41.350Z,1.90
2023-04-15T10:55:41.396Z,1.90
2023-04-15T10:56:41.329Z,1.80
2023-04-15T10:57:41.338Z,1.80
2023-04-15T10:58:41.347Z,2.10
2023-04-15T10:59:41.324Z,1.90
2023-04-15T11:00:41.289Z,2.20
2023-04-15T11:01:41.298Z,2.00
2023-04-15T11:02:41.807Z,1.90
2023-04-15T11:03:41.464Z,2.00
2023-04-15T11:04:43.087Z,2.30
2023-04-15T11:05:41.207Z,2.00
2023-04-15T11:06:41.193Z,1.70
2023-04-15T11:07:41.201Z,1.90
2023-04-15T11:08:41.199Z,1.90
2023-04-15T11:09:41.158Z,2.00
2023-04-15T11:10:41.200Z,1.90
2023-04-15T11:11:41.182Z,2.00
2023-04-15T11:12:41.156Z,2.00
2023-04-15T11:13:41.106Z,2.20
2023-04-15T11:14:41.146Z,1.90
2023-04-15T11:15:41.108Z,1.90
2023-04-15T11:16:41.136Z,1.80
2023-04-15T11:17:41.107Z,2.00
2023-04-15T11:18:41.067Z,1.70
2023-04-15T11:19:41.032Z,2.00
2023-04-15T11:20:41.051Z,2.10
2023-04-15T11:21:41.011Z,1.90
2023-04-15T11:22:41.024Z,1.90
2023-04-15T11:23:40.987Z,1.80
2023-04-15T11:24:40.970Z,1.90
2023-04-15T11:25:40.975Z,2.20
2023-04-15T11:26:40.964Z,2.00
2023-04-15T11:27:40.935Z,1.80
2023-04-15T11:28:40.965Z,1.90
2023-04-15T11:29:40.912Z,2.00
2023-04-15T11:30:40.910Z,2.00
2023-04-15T11:31:40.961Z,1.90
2023-04-15T11:32:40.892Z,2.10
2023-04-15T11:33:40.892Z,2.30
2023-04-15T11:34:40.875Z,2.10
2023-04-15T11:35:40.911Z,2.30
2023-04-15T11:36:40.811Z,2.20
2023-04-15T11:37:40.817Z,2.30
2023-04-15T11:38:40.805Z,2.00
2023-04-15T11:39:40.877Z,2.00
2023-04-15T11:40:40.810Z,2.10
2023-04-15T11:41:40.873Z,2.10
2023-04-15T11:42:49.535Z,2.30
2023-04-15T11:43:40.790Z,2.20
2023-04-15T11:44:40.713Z,2.30
2023-04-15T11:45:40.799Z,2.00
2023-04-15T11:46:40.828Z,2.20
2023-04-15T11:47:41.569Z,2.40
2023-04-15T11:48:40.683Z,2.20
2023-04-15T11:49:40.693Z,2.50
2023-04-15T11:50:40.691Z,1.90
2023-04-15T11:51:40.667Z,2.40
2023-04-15T11:52:40.614Z,2.50
2023-04-15T11:53:40.646Z,2.70
2023-04-15T11:54:40.606Z,2.20
2023-04-15T11:55:40.579Z,2.10
2023-04-15T11:56:40.579Z,2.10
2023-04-15T11:57:40.589Z,2.10
2023-04-15T11:58:40.574Z,2.60
2023-04-15T11:59:45.280Z,2.30
2023-04-15T12:00:40.548Z,2.30
2023-04-15T12:01:40.511Z,2.30
2023-04-15T12:02:40.577Z,2.40
2023-04-15T12:03:40.862Z,2.30
2023-04-15T12:04:40.641Z,2.30
2023-04-15T12:05:40.465Z,2.20
2023-04-15T12:06:40.469Z,2.20
2023-04-15T12:07:40.486Z,2.20
2023-04-15T12:08:40.452Z,1.90
2023-04-15T12:09:40.424Z,2.40
2023-04-15T12:10:40.440Z,2.80
2023-04-15T12:11:40.415Z,2.10
2023-04-15T12:12:40.373Z,1.90
2023-04-15T12:13:40.351Z,2.00
2023-04-15T12:14:40.393Z,1.80
2023-04-15T12:15:40.342Z,2.00
2023-04-15T12:16:48.602Z,1.60
2023-04-15T12:17:51.503Z,1.90
2023-04-15T12:18:40.315Z,2.00
2023-04-15T12:19:40.337Z,1.90
2023-04-15T12:20:40.288Z,1.90
2023-04-15T12:21:40.276Z,1.80
2023-04-15T12:22:40.261Z,2.00
2023-04-15T12:23:40.232Z,1.90
2023-04-15T12:24:40.258Z,1.60
2023-04-15T12:25:40.233Z,1.80
2023-04-15T12:26:40.265Z,1.60
2023-04-15T12:27:40.198Z,2.10
2023-04-15T12:28:40.158Z,1.80
2023-04-15T12:29:40.174Z,1.90
2023-04-15T12:30:40.207Z,1.90
2023-04-15T12:31:40.290Z,1.70
2023-04-15T12:32:42.221Z,1.90
2023-04-15T12:33:40.123Z,1.80
2023-04-15T12:34:40.114Z,1.80
2023-04-15T12:35:40.117Z,1.90
2023-04-15T12:36:40.221Z,4.50
2023-04-15T12:37:40.062Z,2.10
2023-04-15T12:38:40.084Z,2.20
2023-04-15T12:39:40.050Z,2.20
2023-04-15T12:40:40.040Z,2.00
2023-04-15T12:41:40.036Z,1.90
2023-04-15T12:42:39.990Z,2.10
2023-04-15T12:43:39.968Z,3.10
2023-04-15T12:44:39.993Z,1.90
2023-04-15T12:45:40.027Z,1.90
2023-04-15T12:46:40.113Z,1.80
2023-04-15T12:47:40.024Z,1.90
2023-04-15T12:48:39.946Z,1.90
2023-04-15T12:49:40.001Z,1.80
2023-04-15T12:50:39.920Z,1.90
2023-04-15T12:51:39.877Z,2.00
2023-04-15T12:52:39.883Z,2.00
2023-04-15T12:53:39.872Z,1.80
2023-04-15T12:54:39.835Z,1.90
2023-04-15T12:55:39.848Z,1.80
2023-04-15T12:56:39.851Z,1.90
2023-04-15T12:57:39.807Z,1.90
2023-04-15T12:58:39.788Z,1.70
2023-04-15T12:59:39.812Z,1.90
2023-04-15T13:00:39.781Z,1.90
2023-04-15T13:01:39.797Z,1.80
2023-04-15T13:02:40.065Z,1.90
2023-04-15T13:03:39.809Z,1.80
2023-04-15T13:04:39.816Z,1.70
2023-04-15T13:05:39.730Z,1.80
2023-04-15T13:06:39.703Z,1.80
2023-04-15T13:07:39.704Z,1.90
2023-04-15T13:08:42.658Z,1.90
2023-04-15T13:09:39.673Z,1.70
2023-04-15T13:10:39.667Z,1.90
2023-04-15T13:11:39.685Z,1.90
2023-04-15T13:12:39.644Z,1.80
2023-04-15T13:13:39.603Z,1.70
2023-04-15T13:14:39.580Z,1.70
2023-04-15T13:15:39.612Z,2.20
2023-04-15T13:16:39.760Z,2.10
2023-04-15T13:17:39.624Z,2.10
2023-04-15T13:18:40.586Z,2.00
2023-04-15T13:19:39.554Z,2.00
2023-04-15T13:20:39.499Z,2.00
2023-04-15T13:21:39.513Z,1.90